Time;durP1;ratioP1;P1;durP2;ratioP2;P2;SDS_P1;SDS_P2;PMS_P1;PMS_P2;Temp;Humidity;BMP_temperature;BMP_pressure;BME280_temperature;BME280_humidity;BME280_pressure;Samples;Min_cycle;Max_cycle;Signal;HPM_P1;HPM_P2
2023/10/14 00:00:47;;;;;;;6.43;4.13;;;;;;;18.76;100.00;92629.03;2085934;28;20017;-81
2023/10/14 00:01:54;;;;;;;6.93;4.25;;;;;;;18.85;100.00;92631.59;2097350;28;20082;-81
2023/10/14 00:03:01;;;;;;;7.82;4.32;;;;;;;18.54;100.00;92634.97;2099379;28;20035;-80
2023/10/14 00:04:09;;;;;;;7.32;4.18;;;;;;;18.42;100.00;92627.22;2100708;28;20442;-82
2023/10/14 00:05:12;;;;;;;8.48;4.10;;;;;;;18.57;100.00;92633.28;2083843;28;20108;-82
2023/10/14 00:06:13;;;;;;;11.43;4.60;;;;;;;18.70;100.00;92622.09;2098134;28;20039;-82
2023/10/14 00:07:17;;;;;;;9.13;5.13;;;;;;;18.72;100.00;92620.41;2101610;28;20117;-81
2023/10/14 00:08:18;;;;;;;5.47;3.72;;;;;;;18.66;100.00;92635.84;2106029;28;20040;-82
2023/10/14 00:09:21;;;;;;;7.30;4.18;;;;;;;18.44;100.00;92622.06;2081013;28;20090;-82
2023/10/14 00:10:22;;;;;;;6.53;3.67;;;;;;;18.67;100.00;92634.59;2096343;28;20083;-82
2023/10/14 00:12:03;;;;;;;8.98;4.40;;;;;;;18.68;100.00;92632.63;2098204;28;20396;-82
2023/10/14 00:12:54;;;;;;;11.52;4.07;;;;;;;18.69;100.00;92634.88;2098021;28;20047;-82
2023/10/14 00:13:56;;;;;;;6.10;4.22;;;;;;;18.62;100.00;92633.34;2106005;28;20027;-81
2023/10/14 00:15:03;;;;;;;5.18;4.15;;;;;;;18.65;100.00;92634.31;2100312;28;20028;-81
2023/10/14 00:16:23;;;;;;;10.13;4.65;;;;;;;18.47;100.00;92632.69;2097498;28;20027;-82
2023/10/14 00:17:26;;;;;;;4.38;3.95;;;;;;;18.58;100.00;92637.47;2095555;28;20048;-81
2023/10/14 00:18:27;;;;;;;11.98;4.45;;;;;;;18.52;100.00;92639.38;2106419;28;20056;-82
2023/10/14 00:19:28;;;;;;;7.57;4.50;;;;;;;18.41;100.00;92633.88;2114290;28;20102;-81
2023/10/14 00:20:34;;;;;;;8.18;4.45;;;;;;;18.29;100.00;92641.88;2105815;28;20099;-81
2023/10/14 00:21:36;;;;;;;8.23;4.25;;;;;;;18.48;100.00;92646.97;2098725;28;20020;-82
2023/10/14 00:22:39;;;;;;;7.28;4.20;;;;;;;18.38;100.00;92654.50;2097751;28;20500;-82
2023/10/14 00:23:40;;;;;;;5.85;4.47;;;;;;;18.72;100.00;92658.31;2097918;28;20422;-81
2023/10/14 00:24:43;;;;;;;11.40;4.95;;;;;;;18.74;100.00;92649.69;2089308;28;20025;-81
2023/10/14 00:25:44;;;;;;;9.52;5.03;;;;;;;18.80;100.00;92650.50;2089603;28;20116;-82
2023/10/14 00:26:47;;;;;;;9.40;4.53;;;;;;;18.48;100.00;92644.25;2089586;28;20088;-82
2023/10/14 00:27:50;;;;;;;7.65;4.72;;;;;;;18.43;100.00;92634.13;2097544;28;20454;-83
2023/10/14 00:28:54;;;;;;;8.25;5.13;;;;;;;18.41;100.00;92639.28;2089509;28;20194;-81
2023/10/14 00:30:09;;;;;;;5.65;4.82;;;;;;;18.54;100.00;92628.81;2082135;28;20029;-82
2023/10/14 00:31:10;;;;;;;8.13;4.60;;;;;;;18.60;100.00;92641.19;2101176;28;20028;-81
2023/10/14 00:32:12;;;;;;;11.60;5.00;;;;;;;18.54;100.00;92643.09;2097546;28;20035;-82
2023/10/14 00:33:13;;;;;;;9.15;5.07;;;;;;;18.31;100.00;92639.44;2086922;28;20068;-81
2023/10/14 00:34:14;;;;;;;7.97;4.90;;;;;;;18.25;100.00;92635.19;2097296;28;20072;-81
2023/10/14 00:35:19;;;;;;;7.97;5.53;;;;;;;18.06;100.00;92632.78;2097253;28;20028;-82
2023/10/14 00:36:22;;;;;;;7.32;4.88;;;;;;;17.96;100.00;92633.41;2099222;28;20036;-82
2023/10/14 00:37:23;;;;;;;8.27;4.78;;;;;;;17.82;100.00;92637.66;2101503;28;20020;-82
2023/10/14 00:38:24;;;;;;;8.40;5.18;;;;;;;17.98;100.00;92639.81;2090095;28;20132;-83
2023/10/14 00:39:28;;;;;;;7.75;5.43;;;;;;;17.90;100.00;92624.47;2096358;28;20111;-82
2023/10/14 00:40:31;;;;;;;9.68;5.40;;;;;;;17.76;100.00;92617.91;2090616;28;20623;-82
2023/10/14 00:41:36;;;;;;;7.35;5.55;;;;;;;17.69;100.00;92619.06;2083417;28;20493;-83
2023/10/14 00:42:38;;;;;;;9.63;5.53;;;;;;;17.43;100.00;92626.31;2097837;28;20028;-82
2023/10/14 00:43:41;;;;;;;8.57;5.65;;;;;;;17.45;100.00;92621.94;2104924;28;20022;-82
2023/10/14 00:44:42;;;;;;;11.45;5.72;;;;;;;17.85;100.00;92615.81;2098109;28;20028;-80
2023/10/14 00:45:44;;;;;;;8.23;5.60;;;;;;;17.61;100.00;92618.72;2112500;28;20027;-82
2023/10/14 00:46:49;;;;;;;11.75;6.43;;;;;;;17.78;100.00;92627.06;2097551;28;20024;-81
2023/10/14 00:47:50;;;;;;;12.05;5.70;;;;;;;17.62;100.00;92616.75;2105721;28;20020;-82
2023/10/14 00:48:58;;;;;;;12.98;5.80;;;;;;;17.98;100.00;92620.13;2105742;28;20024;-82
2023/10/14 00:50:16;;;;;;;8.20;5.85;;;;;;;17.93;100.00;92615.41;2090378;28;20021;-82
2023/10/14 00:51:19;;;;;;;15.70;6.78;;;;;;;17.62;100.00;92608.63;2094066;28;20021;-82
2023/10/14 00:52:22;;;;;;;11.48;6.55;;;;;;;17.61;100.00;92628.78;2093913;28;20024;-82
2023/10/14 00:53:26;;;;;;;9.10;5.90;;;;;;;17.53;100.00;92622.28;2097647;28;20025;-81
2023/10/14 00:54:51;;;;;;;14.95;6.65;;;;;;;17.49;100.00;92629.84;2089716;28;20060;-81
2023/10/14 00:56:50;;;;;;;12.48;6.70;;;;;;;17.37;100.00;92642.44;2114502;28;20080;-82
2023/10/14 00:57:54;;;;;;;14.63;7.05;;;;;;;17.13;100.00;92637.22;2106306;28;20540;-81
2023/10/14 00:59:04;;;;;;;11.05;6.78;;;;;;;16.82;100.00;92643.13;2097896;28;20151;-81
2023/10/14 01:00:10;;;;;;;;;;;;;;;16.68;100.00;92636.50;2099379;28;20096;-81
2023/10/14 01:01:11;;;;;;;13.98;7.15;;;;;;;16.75;100.00;92638.09;2104472;28;19919;-82
2023/10/14 01:02:13;;;;;;;10.95;7.55;;;;;;;16.62;100.00;92631.00;2100594;28;20035;-82
2023/10/14 01:03:15;;;;;;;12.65;7.32;;;;;;;16.74;100.00;92636.63;2091111;28;20025;-84
2023/10/14 01:04:19;;;;;;;13.82;7.35;;;;;;;16.74;100.00;92639.31;2088686;28;20029;-83
2023/10/14 01:05:21;;;;;;;10.43;7.10;;;;;;;16.79;100.00;92634.00;2082095;28;20034;-82
2023/10/14 01:06:34;;;;;;;15.75;7.82;;;;;;;16.63;100.00;92629.03;2088443;28;20032;-81
2023/10/14 01:07:38;;;;;;;14.23;7.88;;;;;;;16.65;100.00;92631.28;2092644;28;20028;-82
2023/10/14 01:08:43;;;;;;;14.77;7.88;;;;;;;16.53;100.00;92631.09;2106526;28;20059;-81
2023/10/14 01:10:49;;;;;;;14.02;7.90;;;;;;;16.64;100.00;92627.84;2097849;28;20031;-81
2023/10/14 01:11:50;;;;;;;14.07;7.93;;;;;;;16.60;100.00;92627.28;2105853;28;20504;-82
2023/10/14 01:12:55;;;;;;;10.68;7.03;;;;;;;16.60;100.00;92627.28;2098172;28;20020;-83
2023/10/14 01:14:04;;;;;;;9.18;7.70;;;;;;;16.66;100.00;92630.81;2106048;28;20035;-83
2023/10/14 01:15:20;;;;;;;16.83;8.10;;;;;;;16.54;100.00;92621.03;2113189;28;20027;-84
2023/10/14 01:16:24;;;;;;;16.20;7.40;;;;;;;16.61;100.00;92617.97;2113972;27;20145;-85
2023/10/14 01:17:29;;;;;;;12.90;7.57;;;;;;;16.38;100.00;92616.88;2105912;28;20023;-85
2023/10/14 01:18:34;;;;;;;15.35;8.23;;;;;;;16.21;100.00;92616.56;2105795;28;20023;-82
2023/10/14 01:19:37;;;;;;;13.82;7.93;;;;;;;16.36;100.00;92614.63;2097191;28;20020;-82
2023/10/14 01:20:38;;;;;;;15.02;8.02;;;;;;;16.30;100.00;92615.75;2089845;28;20104;-83
2023/10/14 01:21:41;;;;;;;15.60;7.75;;;;;;;16.19;100.00;92610.88;2097451;28;20021;-82
2023/10/14 01:22:43;;;;;;;14.35;8.98;;;;;;;16.23;100.00;92606.06;2089288;28;20033;-84
2023/10/14 01:23:50;;;;;;;13.88;7.82;;;;;;;16.20;100.00;92603.53;2094513;28;20448;-84
2023/10/14 01:24:52;;;;;;;14.32;7.60;;;;;;;16.31;100.00;92601.03;2098100;28;20596;-84
2023/10/14 01:25:53;;;;;;;10.07;7.15;;;;;;;16.39;100.00;92601.44;2089065;28;20071;-82
2023/10/14 01:27:01;;;;;;;13.00;7.85;;;;;;;16.33;100.00;92596.69;2097639;28;20593;-81
2023/10/14 01:28:11;;;;;;;12.90;7.30;;;;;;;16.35;100.00;92602.34;2106245;28;20781;-83
2023/10/14 01:29:14;;;;;;;15.48;7.28;;;;;;;16.38;100.00;92594.56;2098551;28;20119;-85
2023/10/14 01:30:20;;;;;;;13.05;7.97;;;;;;;16.12;100.00;92595.09;2095337;28;20190;-84
2023/10/14 01:32:10;;;;;;;12.80;7.38;;;;;;;16.07;100.00;92599.19;2097969;28;20024;-82
2023/10/14 01:34:24;;;;;;;12.70;6.97;;;;;;;16.24;100.00;92596.00;2097018;28;20464;-85
2023/10/14 01:35:31;;;;;;;12.38;6.47;;;;;;;16.18;100.00;92584.41;2107333;28;20065;-82
2023/10/14 01:36:34;;;;;;;10.93;6.78;;;;;;;16.21;100.00;92578.81;2098404;28;20013;-84
2023/10/14 01:37:44;;;;;;;10.57;6.90;;;;;;;16.22;100.00;92584.97;2084662;28;20382;-83
2023/10/14 01:38:57;;;;;;;10.27;6.50;;;;;;;16.18;100.00;92576.31;2099276;28;20039;-83
2023/10/14 01:40:08;;;;;;;9.23;6.25;;;;;;;16.19;100.00;92567.75;2107066;28;20024;-81
2023/10/14 01:41:10;;;;;;;11.05;6.30;;;;;;;16.40;100.00;92573.97;2094088;28;20025;-82
2023/10/14 01:42:11;;;;;;;9.38;6.32;;;;;;;16.46;100.00;92572.13;2089546;28;20021;-83
2023/10/14 01:43:12;;;;;;;11.15;7.05;;;;;;;16.29;100.00;92573.81;2088667;28;20108;-87
2023/10/14 01:44:21;;;;;;;8.43;6.20;;;;;;;16.31;100.00;92574.81;2098773;28;20032;-83
2023/10/14 01:45:28;;;;;;;11.07;6.40;;;;;;;16.52;100.00;92572.94;2120267;27;20051;-84
2023/10/14 01:46:30;;;;;;;9.75;7.13;;;;;;;16.67;100.00;92583.72;2097034;28;20024;-84
2023/10/14 01:47:32;;;;;;;8.50;6.18;;;;;;;16.70;100.00;92563.91;2098140;28;20380;-82
2023/10/14 01:48:33;;;;;;;7.55;5.78;;;;;;;16.36;100.00;92568.03;2097386;28;20032;-82
2023/10/14 01:49:36;;;;;;;8.82;6.25;;;;;;;16.09;100.00;92575.19;2092544;28;20029;-82
2023/10/14 01:50:46;;;;;;;11.02;6.20;;;;;;;16.25;100.00;92576.69;2089620;28;20100;-84
2023/10/14 01:51:49;;;;;;;13.80;6.43;;;;;;;16.38;100.00;92581.81;2097430;28;20084;-84
2023/10/14 01:52:52;;;;;;;10.70;5.43;;;;;;;16.43;100.00;92581.16;2096694;28;20167;-84
2023/10/14 01:53:53;;;;;;;8.80;5.68;;;;;;;16.37;100.00;92580.28;2097716;28;20058;-83
2023/10/14 01:54:55;;;;;;;7.47;5.55;;;;;;;16.24;100.00;92580.59;2089709;28;20048;-85
2023/10/14 01:55:59;;;;;;;9.40;6.18;;;;;;;16.33;100.00;92579.72;2097285;28;20127;-84
2023/10/14 01:57:00;;;;;;;6.80;5.25;;;;;;;16.51;100.00;92573.44;2106162;28;20028;-85
2023/10/14 01:58:33;;;;;;;7.05;5.03;;;;;;;16.48;100.00;92571.66;2099918;28;20024;-84
2023/10/14 01:59:39;;;;;;;9.25;6.00;;;;;;;16.51;100.00;92568.78;2093188;28;20737;-86
2023/10/14 02:00:46;;;;;;;7.22;4.65;;;;;;;16.68;100.00;92573.66;2082106;28;20493;-84
2023/10/14 02:01:47;;;;;;;7.57;5.80;;;;;;;16.67;100.00;92581.03;2098323;28;20051;-85
2023/10/14 02:02:48;;;;;;;5.70;5.00;;;;;;;16.58;100.00;92584.56;2097200;28;20461;-82
2023/10/14 02:03:54;;;;;;;8.80;5.22;;;;;;;16.56;100.00;92581.59;2097117;28;20115;-84
2023/10/14 02:04:58;;;;;;;7.28;5.00;;;;;;;16.85;100.00;92588.94;2096452;28;20024;-84
2023/10/14 02:06:01;;;;;;;8.68;5.30;;;;;;;16.77;100.00;92587.84;2103208;28;20028;-85
2023/10/14 02:07:18;;;;;;;6.45;4.22;;;;;;;16.85;100.00;92588.19;2102084;28;21661;-84
2023/10/14 02:08:23;;;;;;;7.93;5.05;;;;;;;16.80;100.00;92576.09;2105132;28;20468;-83
2023/10/14 02:09:29;;;;;;;7.53;5.15;;;;;;;16.72;100.00;92582.31;2102995;28;20117;-84
2023/10/14 02:10:35;;;;;;;6.30;4.80;;;;;;;16.70;100.00;92582.78;2097039;28;20021;-84
2023/10/14 02:11:36;;;;;;;7.80;5.18;;;;;;;16.71;100.00;92576.19;2090638;28;20028;-84
2023/10/14 02:12:37;;;;;;;7.90;5.00;;;;;;;16.69;100.00;92572.47;2096448;28;20036;-84
2023/10/14 02:13:38;;;;;;;8.85;4.95;;;;;;;16.58;100.00;92573.78;2088983;28;20040;-85
2023/10/14 02:14:56;;;;;;;9.93;5.22;;;;;;;16.46;100.00;92577.53;2096694;28;20040;-83
2023/10/14 02:16:07;;;;;;;8.15;4.70;;;;;;;17.02;100.00;92572.97;2097674;28;20100;-84
2023/10/14 02:17:10;;;;;;;8.05;4.68;;;;;;;16.83;100.00;92571.72;2099860;28;20031;-83
2023/10/14 02:18:12;;;;;;;5.60;4.55;;;;;;;16.73;100.00;92570.38;2105156;28;20432;-82
2023/10/14 02:19:36;;;;;;;5.70;5.10;;;;;;;16.71;100.00;92570.03;2095981;28;20059;-85
2023/10/14 02:20:45;;;;;;;6.38;4.53;;;;;;;16.81;100.00;92568.75;2092067;28;20115;-84
2023/10/14 02:23:46;;;;;;;6.28;5.00;;;;;;;16.23;100.00;92559.47;2139305;27;20253;-84
2023/10/14 02:24:48;;;;;;;6.03;4.50;;;;;;;16.32;100.00;92559.38;2121069;28;20031;-84
2023/10/14 02:25:55;;;;;;;9.15;5.63;;;;;;;16.27;100.00;92571.56;2103221;28;20027;-86
2023/10/14 02:27:04;;;;;;;7.65;4.50;;;;;;;16.44;100.00;92560.31;2114046;28;20804;-84
2023/10/14 02:28:14;;;;;;;8.50;4.60;;;;;;;16.21;100.00;92545.72;2112610;28;20675;-85
2023/10/14 02:29:15;;;;;;;6.95;5.05;;;;;;;16.21;100.00;92554.56;2106863;28;20074;-85
2023/10/14 02:30:16;;;;;;;5.82;4.53;;;;;;;16.12;100.00;92551.94;2104340;28;20023;-85
2023/10/14 02:31:41;;;;;;;10.07;5.53;;;;;;;16.08;100.00;92546.00;2109048;27;20044;-85
2023/10/14 02:32:40;;;;;;;7.35;4.72;;;;;;;15.98;100.00;92550.75;2123655;27;20037;-85
2023/10/14 02:33:45;;;;;;;7.10;5.10;;;;;;;16.03;100.00;92552.03;2121164;27;20414;-85
2023/10/14 02:34:46;;;;;;;8.48;5.13;;;;;;;16.10;100.00;92547.00;2107317;28;20054;-85
2023/10/14 02:35:47;;;;;;;7.82;4.72;;;;;;;16.28;100.00;92562.25;2095509;28;20020;-84
2023/10/14 02:36:48;;;;;;;7.75;4.82;;;;;;;16.38;100.00;92554.84;2095786;28;20480;-84
2023/10/14 02:37:51;;;;;;;6.28;4.95;;;;;;;16.38;100.00;92552.13;2104284;28;20036;-83
2023/10/14 02:38:53;;;;;;;8.90;5.20;;;;;;;16.36;100.00;92560.69;2117522;27;20080;-84
2023/10/14 02:39:54;;;;;;;5.45;4.95;;;;;;;16.30;100.00;92565.25;2112208;28;20118;-85
2023/10/14 02:40:55;;;;;;;10.27;6.15;;;;;;;16.10;100.00;92557.06;2103901;28;20031;-83
2023/10/14 02:41:59;;;;;;;7.55;5.38;;;;;;;16.25;100.00;92552.41;2097091;28;20081;-85
2023/10/14 02:43:00;;;;;;;10.73;6.20;;;;;;;16.02;100.00;92559.38;2104180;28;20492;-84
2023/10/14 02:44:19;;;;;;;8.60;6.40;;;;;;;15.86;100.00;92567.91;2112688;27;20028;-85
2023/10/14 02:45:20;;;;;;;9.02;5.35;;;;;;;15.94;100.00;92577.13;2112490;28;20032;-85
2023/10/14 02:46:21;;;;;;;8.90;5.32;;;;;;;15.89;100.00;92575.06;2104028;28;20031;-85
2023/10/14 02:47:27;;;;;;;10.00;5.95;;;;;;;15.82;100.00;92578.13;2112892;28;20073;-84
2023/10/14 02:48:49;;;;;;;10.43;6.53;;;;;;;15.67;100.00;92572.72;2114067;27;20024;-84
2023/10/14 02:51:08;;;;;;;9.65;6.82;;;;;;;15.57;100.00;92588.16;2124237;27;20019;-83
2023/10/14 02:52:12;;;;;;;12.18;6.78;;;;;;;15.57;100.00;92590.84;2120896;28;20046;-84
2023/10/14 02:53:21;;;;;;;10.60;6.40;;;;;;;15.66;100.00;92586.63;2104796;28;20457;-83
2023/10/14 02:54:33;;;;;;;9.27;6.47;;;;;;;15.55;100.00;92582.50;2113613;28;20024;-84
2023/10/14 02:55:57;;;;;;;11.07;7.55;;;;;;;15.54;100.00;92586.41;2114021;28;20077;-84
2023/10/14 02:56:59;;;;;;;9.90;6.68;;;;;;;15.40;100.00;92573.59;2115689;28;20084;-85
2023/10/14 02:58:03;;;;;;;12.93;6.78;;;;;;;15.38;100.00;92577.97;2112506;28;20030;-83
2023/10/14 02:59:05;;;;;;;15.15;8.73;;;;;;;15.68;100.00;92563.41;2104565;28;20085;-84
2023/10/14 03:00:09;;;;;;;12.25;7.32;;;;;;;15.50;100.00;92564.28;2104101;28;20115;-84
2023/10/14 03:01:12;;;;;;;13.40;7.43;;;;;;;15.28;100.00;92567.28;2104745;28;20077;-86
2023/10/14 03:02:27;;;;;;;12.63;7.32;;;;;;;15.42;100.00;92562.41;2104535;28;20062;-86
2023/10/14 03:03:29;;;;;;;11.57;7.20;;;;;;;15.35;100.00;92571.56;2107798;28;20024;-84
2023/10/14 03:04:31;;;;;;;12.35;7.05;;;;;;;15.28;100.00;92563.84;2112389;28;20458;-84
2023/10/14 03:06:54;;;;;;;13.95;7.35;;;;;;;15.51;100.00;92570.41;2117385;27;20522;-84
2023/10/14 03:07:55;;;;;;;10.43;7.53;;;;;;;15.41;100.00;92566.28;2121011;27;20114;-83
2023/10/14 03:08:59;;;;;;;18.40;8.57;;;;;;;15.21;100.00;92569.56;2112401;28;20537;-85
2023/10/14 03:11:17;;;;;;;11.20;6.68;;;;;;;15.42;100.00;92578.56;2111601;28;20115;-86
2023/10/14 03:12:21;;;;;;;14.95;7.90;;;;;;;15.43;100.00;92569.25;2104543;28;20032;-83
2023/10/14 03:13:26;;;;;;;16.10;8.85;;;;;;;15.54;100.00;92574.84;2104215;28;20028;-84
2023/10/14 03:14:30;;;;;;;15.55;8.50;;;;;;;15.57;100.00;92571.25;2112052;28;20043;-86
2023/10/14 03:15:32;;;;;;;12.80;7.75;;;;;;;15.71;100.00;92567.13;2110039;28;20625;-86
2023/10/14 03:16:35;;;;;;;14.30;7.97;;;;;;;15.60;100.00;92565.69;2112245;28;20020;-82
2023/10/14 03:17:41;;;;;;;16.52;7.70;;;;;;;15.69;100.00;92578.38;2108788;28;20016;-84
2023/10/14 03:18:44;;;;;;;17.33;8.10;;;;;;;15.77;100.00;92576.06;2104577;28;20020;-84
2023/10/14 03:19:44;;;;;;;17.20;8.40;;;;;;;15.59;100.00;92566.16;2098437;28;20024;-84
2023/10/14 03:21:58;;;;;;;17.58;7.95;;;;;;;15.71;100.00;92556.34;2103572;28;20024;-82
2023/10/14 03:23:09;;;;;;;23.52;8.60;;;;;;;15.80;100.00;92561.66;2111708;28;20048;-85
2023/10/14 03:24:10;;;;;;;16.17;8.57;;;;;;;15.67;100.00;92567.34;2104777;28;20086;-86
2023/10/14 03:25:14;;;;;;;23.27;9.43;;;;;;;15.72;100.00;92557.84;2088618;28;20428;-83
2023/10/14 03:26:19;;;;;;;19.58;8.95;;;;;;;15.77;100.00;92570.69;2112590;28;20115;-86
2023/10/14 03:27:32;;;;;;;18.42;8.43;;;;;;;15.62;100.00;92571.34;2104462;28;20059;-85
2023/10/14 03:28:37;;;;;;;14.80;8.23;;;;;;;15.78;100.00;92558.69;2098287;28;20393;-86
2023/10/14 03:29:38;;;;;;;20.38;8.82;;;;;;;15.71;100.00;92564.44;2106891;28;20032;-86
2023/10/14 03:30:45;;;;;;;22.90;9.40;;;;;;;15.69;100.00;92558.78;2112260;28;20020;-86
2023/10/14 03:31:46;;;;;;;18.70;8.40;;;;;;;15.62;100.00;92565.97;2096792;28;20474;-85
2023/10/14 03:32:50;;;;;;;16.65;8.63;;;;;;;15.72;100.00;92566.69;2095315;28;20023;-84
2023/10/14 03:33:58;;;;;;;15.35;8.20;;;;;;;15.69;100.00;92574.94;2095859;28;20028;-84
2023/10/14 03:35:10;;;;;;;18.80;8.27;;;;;;;15.75;100.00;92567.69;2091241;28;20037;-85
2023/10/14 03:36:15;;;;;;;17.50;8.85;;;;;;;15.81;100.00;92560.47;2092983;28;20120;-83
2023/10/14 03:37:23;;;;;;;20.58;8.65;;;;;;;15.85;100.00;92571.81;2090851;28;20023;-85
2023/10/14 03:38:55;;;;;;;17.50;7.95;;;;;;;15.82;100.00;92567.34;2091982;28;20098;-83
2023/10/14 03:39:54;;;;;;;17.73;8.23;;;;;;;15.94;100.00;92569.03;2103544;28;20053;-85
2023/10/14 03:41:04;;;;;;;16.50;7.88;;;;;;;15.82;100.00;92583.53;2107144;28;20024;-86
2023/10/14 03:42:10;;;;;;;13.25;7.80;;;;;;;15.81;100.00;92561.22;2109636;28;20643;-85
2023/10/14 03:43:14;;;;;;;13.40;7.30;;;;;;;15.79;100.00;92574.41;2098345;28;20020;-85
2023/10/14 03:44:15;;;;;;;17.30;7.32;;;;;;;15.82;100.00;92557.31;2090887;28;20036;-84
2023/10/14 03:45:21;;;;;;;16.95;7.82;;;;;;;15.67;100.00;92561.16;2083305;28;20033;-85
2023/10/14 03:46:29;;;;;;;14.98;7.13;;;;;;;15.74;100.00;92560.81;2097826;28;20402;-85
2023/10/14 03:47:34;;;;;;;15.73;6.80;;;;;;;15.73;100.00;92556.66;2106493;28;20511;-86
2023/10/14 03:48:45;;;;;;;14.25;7.28;;;;;;;15.88;100.00;92565.50;2094877;28;20056;-84
2023/10/14 03:49:55;;;;;;;11.35;6.45;;;;;;;15.92;100.00;92554.53;2100967;28;20025;-83
2023/10/14 03:51:02;;;;;;;17.08;7.00;;;;;;;15.87;100.00;92542.44;2106657;28;20086;-83
2023/10/14 03:52:10;;;;;;;14.25;7.10;;;;;;;15.83;100.00;92553.41;2099124;28;20033;-82
2023/10/14 03:53:12;;;;;;;14.98;6.40;;;;;;;15.99;100.00;92554.91;2098678;28;20020;-83
2023/10/14 03:54:19;;;;;;;14.48;7.03;;;;;;;15.85;100.00;92555.66;2106389;28;20154;-83
2023/10/14 03:55:26;;;;;;;16.05;7.20;;;;;;;15.85;100.00;92550.25;2104976;28;20574;-84
2023/10/14 03:56:29;;;;;;;14.45;6.72;;;;;;;16.03;100.00;92557.44;2093370;28;20075;-84
2023/10/14 03:57:33;;;;;;;17.00;7.22;;;;;;;15.94;100.00;92566.34;2090054;28;20083;-85
2023/10/14 03:58:37;;;;;;;16.65;6.75;;;;;;;15.90;100.00;92578.53;2098063;28;20020;-85
2023/10/14 03:59:38;;;;;;;18.75;6.60;;;;;;;15.89;100.00;92566.97;2093978;28;20044;-82
2023/10/14 04:00:42;;;;;;;12.95;6.75;;;;;;;15.90;100.00;92551.56;2097790;28;20020;-84
2023/10/14 04:01:45;;;;;;;12.75;7.63;;;;;;;15.98;100.00;92564.22;2099603;28;20024;-85
2023/10/14 04:02:46;;;;;;;19.17;6.57;;;;;;;16.08;100.00;92556.78;2097718;28;20115;-85
2023/10/14 04:03:51;;;;;;;16.45;7.20;;;;;;;15.99;100.00;92559.56;2093058;28;20384;-85
2023/10/14 04:05:01;;;;;;;17.05;8.38;;;;;;;15.95;100.00;92562.44;2093534;28;20032;-85
2023/10/14 04:06:07;;;;;;;12.57;6.65;;;;;;;15.98;100.00;92564.22;2094198;27;20430;-84
2023/10/14 04:08:09;;;;;;;10.75;6.93;;;;;;;15.86;100.00;92565.22;2091296;28;20055;-85
2023/10/14 04:09:17;;;;;;;18.13;7.03;;;;;;;16.05;100.00;92568.50;2097779;28;20024;-84
2023/10/14 04:10:23;;;;;;;17.83;7.32;;;;;;;15.99;100.00;92567.66;2091607;28;20049;-83
2023/10/14 04:11:28;;;;;;;15.18;6.90;;;;;;;15.94;100.00;92574.44;2098448;28;20055;-83
2023/10/14 04:12:38;;;;;;;12.65;7.35;;;;;;;16.16;100.00;92568.69;2090348;28;20070;-85
2023/10/14 04:16:13;;;;;;;17.23;7.10;;;;;;;15.95;100.00;92548.97;2106053;28;20062;-84
2023/10/14 04:17:19;;;;;;;13.80;7.18;;;;;;;15.86;100.00;92549.03;2095842;28;20038;-84
2023/10/14 04:18:27;;;;;;;12.23;7.22;;;;;;;15.99;100.00;92551.47;2099367;28;20024;-83
2023/10/14 04:19:28;;;;;;;19.25;7.47;;;;;;;15.95;100.00;92546.25;2105812;28;20097;-84
2023/10/14 04:20:31;;;;;;;13.65;6.85;;;;;;;16.21;100.00;92551.13;2104281;28;20020;-83
2023/10/14 04:21:39;;;;;;;18.83;7.60;;;;;;;16.00;100.00;92551.00;2106129;28;20081;-83
2023/10/14 04:22:40;;;;;;;16.00;6.93;;;;;;;16.03;100.00;92560.13;2098551;28;20035;-86
2023/10/14 04:24:00;;;;;;;15.18;7.05;;;;;;;16.01;100.00;92557.13;2086080;28;20413;-84
2023/10/14 04:25:19;;;;;;;15.98;6.85;;;;;;;16.13;100.00;92552.69;2103225;28;20097;-86
2023/10/14 04:26:22;;;;;;;11.70;7.00;;;;;;;16.05;100.00;92553.06;2100373;28;20446;-86
2023/10/14 04:27:33;;;;;;;15.80;6.57;;;;;;;16.40;100.00;92546.25;2097669;28;20494;-84
2023/10/14 04:28:39;;;;;;;15.68;6.72;;;;;;;16.32;100.00;92559.38;2093745;28;20033;-86
2023/10/14 04:29:40;;;;;;;12.68;7.13;;;;;;;16.29;100.00;92557.63;2098545;28;20021;-84
2023/10/14 04:30:44;;;;;;;15.73;6.47;;;;;;;16.30;100.00;92557.16;2097577;28;20489;-83
2023/10/14 04:31:55;;;;;;;17.77;7.10;;;;;;;16.25;100.00;92548.97;2089604;28;21026;-84
2023/10/14 04:34:05;;;;;;;12.95;6.30;;;;;;;16.43;100.00;92559.56;2104459;28;20055;-84
2023/10/14 04:35:06;;;;;;;11.65;6.65;;;;;;;16.41;100.00;92555.84;2090218;28;20180;-85
2023/10/14 04:37:08;;;;;;;11.10;6.10;;;;;;;16.50;100.00;92558.44;2106592;28;20016;-84
2023/10/14 04:38:16;;;;;;;12.10;6.40;;;;;;;16.53;100.00;92547.47;2106102;28;20048;-82
2023/10/14 04:39:25;;;;;;;14.88;6.90;;;;;;;16.45;100.00;92546.34;2105708;28;20066;-83
2023/10/14 04:41:36;;;;;;;14.00;6.30;;;;;;;16.16;100.00;92549.81;2113591;28;20502;-86
2023/10/14 04:42:42;;;;;;;15.38;6.75;;;;;;;16.25;100.00;92549.72;2103589;28;20648;-85
2023/10/14 04:45:13;;;;;;;19.05;6.95;;;;;;;16.23;100.00;92546.72;2093100;28;20036;-84
2023/10/14 04:46:24;;;;;;;14.48;6.38;;;;;;;16.06;100.00;92549.13;2110661;28;20434;-84
2023/10/14 04:47:40;;;;;;;15.63;6.57;;;;;;;16.02;100.00;92547.84;2105600;28;20028;-85
2023/10/14 04:48:50;;;;;;;14.73;6.43;;;;;;;16.02;100.00;92553.22;2090926;28;20059;-83
2023/10/14 04:49:52;;;;;;;21.90;7.20;;;;;;;16.03;100.00;92542.00;2083423;28;20026;-85
2023/10/14 04:51:00;;;;;;;16.55;6.70;;;;;;;16.02;100.00;92540.53;2089409;28;20029;-84
2023/10/14 04:52:06;;;;;;;18.70;6.72;;;;;;;16.16;100.00;92544.41;2087488;28;20100;-85
2023/10/14 04:53:13;;;;;;;13.88;6.60;;;;;;;16.14;100.00;92535.28;2090035;28;20017;-85
2023/10/14 04:54:23;;;;;;;12.98;6.13;;;;;;;16.08;100.00;92537.91;2098410;28;20079;-84
2023/10/14 04:56:33;;;;;;;11.50;6.10;;;;;;;16.21;100.00;92537.63;2103102;28;20028;-84
2023/10/14 04:57:40;;;;;;;11.90;6.40;;;;;;;16.14;100.00;92544.13;2098605;28;20052;-83
2023/10/14 04:58:44;;;;;;;17.65;6.70;;;;;;;16.23;100.00;92546.00;2090483;28;20508;-84
2023/10/14 04:59:46;;;;;;;16.95;7.15;;;;;;;16.11;100.00;92535.03;2090078;28;20120;-84
2023/10/14 05:00:48;;;;;;;17.33;6.82;;;;;;;16.32;100.00;92545.88;2105918;27;20106;-83
2023/10/14 05:01:50;;;;;;;15.23;6.85;;;;;;;16.33;100.00;92540.03;2103332;28;20032;-84
2023/10/14 05:02:59;;;;;;;15.85;7.25;;;;;;;16.26;100.00;92542.38;2089261;28;20039;-84
2023/10/14 05:04:01;;;;;;;14.40;6.53;;;;;;;16.17;100.00;92545.16;2098548;28;20031;-86
2023/10/14 05:05:04;;;;;;;12.60;5.82;;;;;;;16.39;100.00;92545.53;2097165;28;20021;-85
2023/10/14 05:07:11;;;;;;;12.00;6.43;;;;;;;16.08;100.00;92544.03;2103159;28;20051;-82
2023/10/14 05:08:15;;;;;;;18.10;6.53;;;;;;;16.15;100.00;92539.47;2105992;28;20024;-84
2023/10/14 05:09:29;;;;;;;18.02;6.85;;;;;;;15.98;100.00;92544.56;2098364;28;20048;-84
2023/10/14 05:10:42;;;;;;;17.90;7.03;;;;;;;15.88;100.00;92535.84;2106144;28;20031;-84
2023/10/14 05:11:47;;;;;;;16.33;6.60;;;;;;;15.82;100.00;92543.09;2106256;28;20655;-84
2023/10/14 05:12:51;;;;;;;18.02;7.38;;;;;;;15.78;100.00;92542.53;2089272;28;20025;-84
2023/10/14 05:14:09;;;;;;;15.35;6.82;;;;;;;15.84;100.00;92543.34;2081851;28;20414;-84
2023/10/14 05:15:25;;;;;;;14.73;6.93;;;;;;;15.96;100.00;92549.69;2095217;28;20028;-83
2023/10/14 05:16:27;;;;;;;18.52;6.63;;;;;;;16.07;100.00;92550.66;2105974;28;20027;-83
2023/10/14 05:17:32;;;;;;;12.27;6.40;;;;;;;16.05;100.00;92560.41;2105367;28;20024;-84
2023/10/14 05:18:35;;;;;;;18.05;6.50;;;;;;;15.98;100.00;92560.75;2091791;28;20106;-84
2023/10/14 05:19:41;;;;;;;16.90;6.68;;;;;;;15.94;100.00;92547.47;2089634;28;20017;-85
2023/10/14 05:21:57;;;;;;;11.18;6.75;;;;;;;15.84;100.00;92564.91;2097644;28;20031;-84
2023/10/14 05:22:59;;;;;;;12.80;6.50;;;;;;;15.98;100.00;92553.44;2105277;28;20388;-84
2023/10/14 05:24:02;;;;;;;13.23;6.45;;;;;;;15.82;100.00;92551.91;2098041;28;20035;-83
2023/10/14 05:25:08;;;;;;;14.23;6.95;;;;;;;15.82;100.00;92561.97;2096375;28;20057;-84